Terminal Aerodrome Forecast
Issued by NWS Amarillo, TX

Home | Current Version | Previous Version | Text Only | Print | Product List | Glossary On
Versions: 1 2 3 4 5 6 7 8 9 10 11 12 13 14 15 16 17 18 19 20 21 22 23 24 25 26
000
FTUS44 KAMA 291100
TAFAMA
TAF
KAMA 291126Z 2912/3012 17010KT P6SM VCSH SCT040 BKN070
      TEMPO 2913/2917 3SM TSRA BKN015CB
     FM291900 18014KT P6SM SCT040 BKN090
     FM300200 16013KT P6SM VCTS BKN080CB
     FM300700 18013KT P6SM BKN080=

USA.gov is the U.S. government's official web portal to all federal, state and local government web resources and services.